West Lafayette, IN

2:31 AM EDT on October 01, 2014 (GMT -0400)
Pine View Farms | Change Station
CLOSE
Current Station
Personal Weather Station
Location: West Lafayette, IN
Elevation: 696 ft
Nearby Weather Stations

Elev 696 ft 40.47 °N, 86.95 °W | Updated 0 second ago

Clear
Clear
50.0 °F
Feels Like 50.0 °F
N
0.9
Wind Variable Wind from North
Gusts 1.3 mph

Today
High -- | Low -- °F
--% Chance of Precip.
Yesterday
High -- | Low -- °F
Precip. -- in
7:44 AM 7:29 PM
Waxing Crescent, 44% visible
Pressure 30.00 in
Visibility 10.0 miles
Clouds Clear
Dew Point 45 °F
Humidity 82%
Rainfall 0.00 in
Snow Depth Not available.
UV 0 out of 12
Pollen 4.70 out of 12
Air Quality Not available.
Flu Activity Not available.
METAR KLAF 010554Z AUTO 08007KT 10SM CLR 09/08 A3000 RMK AO2 SLP158 T00890078 10144 20078 58002 TSNO

More Conditions Fewer Conditions

Pressure 30.00 in
Visibility 10.0 miles
Clouds Clear
Dew Point 45 °F
Humidity 82%
Rainfall 0.00 in
Snow Depth Not available.
UV 0 out of 12
Pollen 4.70 out of 12
Air Quality Not available.
Flu Activity Not available.
METAR KLAF 010554Z AUTO 08007KT 10SM CLR 09/08 A3000 RMK AO2 SLP158 T00890078 10144 20078 58002 TSNO

More Conditions Fewer Conditions

10-Day Weather Forecast

Almanac

Astronomy

Oct. 01, 2014 Rise Set
Actual Time 7:44 AM EDT 7:29 PM EDT
Civil Twilight 7:17 AM EDT 7:57 PM EDT
Nautical Twilight 6:45 AM EDT 8:28 PM EDT
Astronomical Twilight 6:13 AM EDT 9:00 PM EDT
Moon 2:45 PM EDT 12:00 AM EDT
Length of Visible Light 12h 40m
Length of Day
11h 45m
Tomorrow will be 2m 40s shorter.
Waxing Crescent, 44% of the Moon is Illuminated
Today
Waxing Crescent
Oct 1
First Quarter
Oct 8
Full
Oct 15
Last Quarter
Oct 23
New

Today's Extremes

State Highs State Lows

Community

WunderPhotos

Upload Photos

1,757,886 photos uploaded!

Nearby

Snow Depth

Station Depth Elevation
No new snow has been reported.

Earthquake Activity

City Distance Mag. Time & Date
No recent earthquake activity has been reported nearby.
Minimum magnitude displayed is 2.5.

Coastal Water Temperatures

Place Temperature
No Stations Reporting

Nearby Weather Stations